Time;durP1;ratioP1;P1;durP2;ratioP2;P2;SDS_P1;SDS_P2;PMS_P1;PMS_P2;Temp;Humidity;BMP_temperature;BMP_pressure;BME280_temperature;BME280_humidity;BME280_pressure;Samples;Min_cycle;Max_cycle;Signal;HPM_P1;HPM_P2
2023/05/09 00:02:01;;;;;;;;;2.00;2.00;;;;;17.67;90.22;101667.16;5072681;28;48991;-72
2023/05/09 00:04:26;;;;;;;;;4.67;3.00;;;;;17.66;90.47;101665.47;5065497;28;45529;-72
2023/05/09 00:06:51;;;;;;;;;2.33;2.33;;;;;17.64;93.21;101662.88;5066759;28;45621;-72
2023/05/09 00:09:17;;;;;;;;;4.00;4.00;;;;;17.57;89.46;101647.31;5079185;27;45490;-72
2023/05/09 00:11:42;;;;;;;;;2.67;2.67;;;;;17.53;90.29;101641.28;5074682;28;45519;-72
2023/05/09 00:14:08;;;;;;;;;4.33;3.00;;;;;17.56;90.16;101649.13;5074657;28;45300;-73
2023/05/09 00:16:35;;;;;;;;;2.67;2.67;;;;;17.54;89.47;101640.28;5071274;28;45237;-72
2023/05/09 00:19:02;;;;;;;;;3.00;3.00;;;;;17.50;91.96;101630.78;5060280;28;46113;-72
2023/05/09 00:21:27;;;;;;;;;3.00;3.00;;;;;17.53;89.85;101635.94;5071842;28;45475;-72
2023/05/09 00:23:52;;;;;;;;;4.33;3.00;;;;;17.53;89.03;101632.38;5059803;28;45391;-73
2023/05/09 00:26:18;;;;;;;;;2.00;2.00;;;;;17.52;90.32;101628.84;5068199;28;52914;-72
2023/05/09 00:28:43;;;;;;;;;4.00;3.00;;;;;17.54;90.33;101632.28;5063349;28;46059;-72
2023/05/09 00:31:08;;;;;;;;;3.67;2.00;;;;;17.53;89.63;101629.72;5061237;28;45382;-72
2023/05/09 00:33:34;;;;;;;;;2.33;2.33;;;;;17.50;88.55;101625.41;5065355;28;45338;-72
2023/05/09 00:35:59;;;;;;;;;4.00;2.67;;;;;17.51;89.97;101632.47;5064834;28;45443;-73
2023/05/09 00:38:24;;;;;;;;;4.00;3.00;;;;;17.50;86.24;101635.25;5065391;28;45350;-72
2023/05/09 00:40:50;;;;;;;;;2.00;2.00;;;;;17.47;87.16;101617.56;5061807;27;45497;-72
2023/05/09 00:43:15;;;;;;;;;3.00;3.00;;;;;17.50;87.81;101620.06;5059446;28;45461;-72
2023/05/09 00:45:41;;;;;;;;;2.33;2.33;;;;;17.45;88.31;101610.59;5061009;28;45734;-73
2023/05/09 00:48:07;;;;;;;;;3.00;3.00;;;;;17.43;90.29;101613.38;5074824;28;45379;-72
2023/05/09 00:50:32;;;;;;;;;2.67;2.67;;;;;17.40;89.76;101599.34;5065467;28;45499;-72
2023/05/09 00:52:58;;;;;;;;;3.67;2.00;;;;;17.46;89.38;101610.50;5065247;28;45239;-72
2023/05/09 00:55:23;;;;;;;;;2.67;2.00;;;;;17.47;90.45;101611.38;5073766;28;45292;-71
2023/05/09 00:57:49;;;;;;;;;4.67;3.33;;;;;17.32;90.88;101585.56;5074441;28;46668;-72
2023/05/09 01:00:15;;;;;;;;;2.00;2.00;;;;;17.40;91.91;101589.50;5070695;28;45443;-72
2023/05/09 01:02:47;;;;;;;;;6.00;1.67;;;;;17.40;92.25;101594.84;5066712;27;45556;-72
2023/05/09 01:05:13;;;;;;;;;3.00;3.00;;;;;17.39;92.74;101592.25;5063669;27;45277;-73
2023/05/09 01:07:55;;;;;;;;;3.00;3.00;;;;;17.36;91.66;101581.75;5071562;28;46083;-72
2023/05/09 01:10:47;;;;;;;;;3.00;3.00;;;;;17.33;91.93;101587.31;5059420;28;45532;-72
2023/05/09 01:13:24;;;;;;;;;3.33;3.00;;;;;17.32;94.52;101589.13;5065403;28;45512;-73
2023/05/09 01:15:57;;;;;;;;;5.00;3.00;;;;;17.27;94.64;101575.19;5058374;28;45572;-72
2023/05/09 01:18:33;;;;;;;;;3.00;3.00;;;;;17.26;94.50;101575.28;5074007;28;45660;-72
2023/05/09 01:21:10;;;;;;;;;3.00;3.00;;;;;17.24;93.64;101582.53;5068463;28;45576;-73
2023/05/09 01:23:44;;;;;;;;;3.33;3.33;;;;;17.21;92.46;101564.88;5059054;28;45691;-72
2023/05/09 01:26:18;;;;;;;;;4.00;4.00;;;;;17.21;93.26;101559.53;5074103;27;45411;-72
2023/05/09 01:29:26;;;;;;;;;2.00;2.00;;;;;17.16;92.83;101545.59;5058205;28;45376;-73
2023/05/09 01:31:55;;;;;;;;;3.00;3.00;;;;;17.16;93.77;101538.44;5058575;28;45567;-71
2023/05/09 01:34:24;;;;;;;;;2.00;2.00;;;;;17.17;93.43;101542.81;5065659;28;45457;-72
2023/05/09 01:36:50;;;;;;;;;4.00;3.00;;;;;17.16;94.26;101543.78;5062747;28;45896;-72
2023/05/09 01:39:18;;;;;;;;;4.00;3.00;;;;;17.12;94.32;101528.00;5060476;28;45500;-72
2023/05/09 01:41:44;;;;;;;;;4.33;4.00;;;;;17.15;94.29;101542.03;5059552;28;45308;-73
2023/05/09 01:44:12;;;;;;;;;6.00;3.33;;;;;17.17;94.24;101537.47;5066087;28;45555;-72
2023/05/09 01:46:38;;;;;;;;;3.00;3.00;;;;;17.11;94.86;101535.16;5062852;28;45453;-72
2023/05/09 01:49:07;;;;;;;;;3.33;3.00;;;;;17.14;94.58;101537.69;5058480;28;45320;-72
2023/05/09 01:51:35;;;;;;;;;2.00;2.00;;;;;17.08;95.37;101527.34;5057429;27;45370;-72
2023/05/09 01:54:00;;;;;;;;;2.00;2.00;;;;;17.12;94.83;101523.53;5061228;28;46514;-72
2023/05/09 01:56:27;;;;;;;;;4.33;4.33;;;;;17.14;92.66;101528.78;5061489;28;52419;-72
2023/05/09 01:58:55;;;;;;;;;3.00;3.00;;;;;17.11;93.56;101527.16;5059864;28;45582;-72
2023/05/09 02:01:21;;;;;;;;;5.00;3.00;;;;;17.17;93.25;101526.78;5065096;28;45552;-73
2023/05/09 02:03:51;;;;;;;;;2.33;2.33;;;;;17.11;94.95;101520.97;5062587;28;45364;-73
2023/05/09 02:06:19;;;;;;;;;3.00;3.00;;;;;17.16;93.28;101522.38;5080241;27;46990;-72
2023/05/09 02:08:45;;;;;;;;;2.67;2.67;;;;;17.11;92.84;101519.13;5065435;28;46183;-72
2023/05/09 02:11:10;;;;;;;;;4.67;4.67;;;;;17.08;94.17;101505.13;5072057;28;45316;-73
2023/05/09 02:13:37;;;;;;;;;2.33;2.33;;;;;17.12;94.82;101515.50;5068300;28;50363;-73
2023/05/09 02:16:03;;;;;;;;;4.00;4.00;;;;;17.06;94.26;101509.69;5062116;28;45402;-73
2023/05/09 02:18:28;;;;;;;;;3.67;3.00;;;;;17.08;95.34;101513.97;5061268;28;45423;-73
2023/05/09 02:20:54;;;;;;;;;6.33;4.00;;;;;17.13;95.47;101521.72;5068197;28;53238;-73
2023/05/09 02:23:19;;;;;;;;;5.67;4.67;;;;;17.13;95.71;101522.59;5068118;28;45528;-72
2023/05/09 02:25:45;;;;;;;;;4.00;4.00;;;;;17.13;94.48;101513.69;5061629;28;45492;-73
2023/05/09 02:28:12;;;;;;;;;3.67;3.67;;;;;17.12;94.55;101523.53;5064660;28;45419;-73
2023/05/09 02:30:43;;;;;;;;;3.00;3.00;;;;;17.12;95.94;101518.19;5063179;28;46358;-73
2023/05/09 02:33:11;;;;;;;;;3.67;3.67;;;;;17.12;95.80;101522.66;5073091;28;45369;-72
2023/05/09 02:35:40;;;;;;;;;3.00;3.00;;;;;17.12;96.39;101517.31;5068903;28;45519;-72
2023/05/09 02:38:06;;;;;;;;;4.00;3.00;;;;;17.12;98.27;101514.66;5063556;28;45506;-72
2023/05/09 02:40:32;;;;;;;;;3.67;3.67;;;;;17.05;97.30;101506.16;5060228;28;45365;-71
2023/05/09 02:42:58;;;;;;;;;4.00;4.00;;;;;17.11;96.54;101513.78;5061828;28;45299;-71
2023/05/09 02:45:24;;;;;;;;;3.67;3.67;;;;;17.04;97.23;101499.13;5071243;28;45355;-72
2023/05/09 02:47:49;;;;;;;;;4.00;4.00;;;;;17.06;95.35;101509.69;5069881;28;45580;-72
2023/05/09 02:50:15;;;;;;;;;3.00;3.00;;;;;17.07;97.64;101512.28;5065545;28;45766;-72
2023/05/09 02:52:40;;;;;;;;;6.00;5.00;;;;;17.02;96.40;101493.00;5074620;28;48160;-71
2023/05/09 02:55:06;;;;;;;;;2.00;2.00;;;;;17.04;100.00;101506.25;5075390;28;45400;-72
2023/05/09 02:57:32;;;;;;;;;4.00;4.00;;;;;17.02;100.00;101500.13;5075819;28;45739;-71
2023/05/09 02:59:57;;;;;;;;;3.00;3.00;;;;;17.02;100.00;101502.81;5061865;28;45556;-72
2023/05/09 03:02:23;;;;;;;;;4.00;4.00;;;;;16.96;100.00;101496.03;5070424;28;45505;-72
2023/05/09 03:04:48;;;;;;;;;5.00;5.00;;;;;16.97;100.00;101499.59;5060910;28;45437;-72
2023/05/09 03:07:14;;;;;;;;;5.00;5.00;;;;;16.92;100.00;101496.31;5065096;28;45515;-72
2023/05/09 03:09:39;;;;;;;;;3.00;3.00;;;;;16.95;100.00;101497.00;5070789;28;50956;-72
2023/05/09 03:12:05;;;;;;;;;4.00;4.00;;;;;16.80;100.00;101473.91;5068154;28;45430;-72
2023/05/09 03:14:30;;;;;;;;;4.00;3.33;;;;;16.89;100.00;101507.19;5059763;28;45347;-71
2023/05/09 03:16:55;;;;;;;;;3.00;3.00;;;;;16.81;100.00;101498.81;5060764;28;45459;-72
2023/05/09 03:19:21;;;;;;;;;5.33;4.33;;;;;16.76;100.00;101498.22;5061223;28;45348;-72
2023/05/09 03:21:46;;;;;;;;;3.00;3.00;;;;;16.80;100.00;101497.97;5069568;28;45476;-72
2023/05/09 03:24:12;;;;;;;;;4.00;4.00;;;;;16.74;100.00;101487.66;5067613;27;45559;-72
2023/05/09 03:26:37;;;;;;;;;5.00;3.33;;;;;16.74;100.00;101498.34;5070226;28;45485;-71
2023/05/09 03:29:03;;;;;;;;;3.67;3.00;;;;;16.68;100.00;101496.06;5068871;28;45349;-71
2023/05/09 03:31:28;;;;;;;;;3.00;3.00;;;;;16.64;100.00;101490.03;5066976;28;45293;-73
2023/05/09 03:33:54;;;;;;;;;4.00;3.00;;;;;16.61;100.00;101486.69;5064936;28;45476;-72
2023/05/09 03:36:19;;;;;;;;;3.00;3.00;;;;;16.52;100.00;101484.56;5063241;28;45383;-72
2023/05/09 03:38:44;;;;;;;;;6.00;3.00;;;;;16.42;100.00;101465.56;5072743;28;45256;-72
2023/05/09 03:41:12;;;;;;;;;5.00;3.33;;;;;16.46;100.00;101477.75;5088538;27;45366;-71
2023/05/09 03:43:37;;;;;;;;;4.00;3.00;;;;;16.47;100.00;101490.16;5068130;28;45309;-72
2023/05/09 03:46:03;;;;;;;;;3.00;3.00;;;;;16.45;100.00;101473.41;5061159;28;46322;-71
2023/05/09 03:48:28;;;;;;;;;5.00;3.33;;;;;16.42;100.00;101483.41;5060737;28;45300;-72
2023/05/09 03:50:53;;;;;;;;;3.00;3.00;;;;;16.35;100.00;101472.22;5059310;28;46619;-72
2023/05/09 03:53:19;;;;;;;;;3.00;2.00;;;;;16.25;100.00;101467.53;5060564;28;45479;-73
2023/05/09 03:55:44;;;;;;;;;3.00;2.33;;;;;16.20;100.00;101458.94;5075205;28;46868;-72
2023/05/09 03:58:10;;;;;;;;;1.67;1.67;;;;;16.19;100.00;101462.56;5077682;28;45597;-72
2023/05/09 04:00:36;;;;;;;;;3.67;2.00;;;;;16.12;100.00;101454.94;5064026;28;45420;-72
2023/05/09 04:03:02;;;;;;;;;4.00;2.00;;;;;16.10;100.00;101467.47;5062687;28;45371;-72
2023/05/09 04:05:27;;;;;;;;;2.00;2.00;;;;;15.98;100.00;101449.53;5067063;28;46301;-72
2023/05/09 04:07:53;;;;;;;;;1.67;1.67;;;;;16.00;100.00;101458.31;5060077;28;46293;-72
2023/05/09 04:10:18;;;;;;;;;5.00;3.00;;;;;15.89;100.00;101451.91;5060616;28;45251;-72
2023/05/09 04:12:43;;;;;;;;;4.00;2.33;;;;;15.90;100.00;101458.97;5073977;28;45519;-72
2023/05/09 04:15:09;;;;;;;;;1.33;1.33;;;;;15.84;100.00;101453.97;5060521;28;45490;-72
2023/05/09 04:17:35;;;;;;;;;2.00;2.00;;;;;15.83;100.00;101454.94;5076044;28;45404;-71
2023/05/09 04:20:00;;;;;;;;;1.67;1.67;;;;;15.69;100.00;101431.72;5065189;28;45199;-72
2023/05/09 04:22:26;;;;;;;;;2.00;2.00;;;;;15.66;100.00;101433.72;5061694;28;45465;-72
2023/05/09 04:24:51;;;;;;;;;2.00;2.00;;;;;15.73;100.00;101440.41;5058453;28;53643;-72
2023/05/09 04:27:17;;;;;;;;;3.00;2.00;;;;;15.69;100.00;101436.19;5065576;28;45393;-72
2023/05/09 04:29:42;;;;;;;;;1.00;1.00;;;;;15.66;100.00;101433.72;5067608;28;45262;-72
2023/05/09 04:32:07;;;;;;;;;2.00;2.00;;;;;15.60;100.00;101432.25;5073688;28;45283;-72
2023/05/09 04:34:33;;;;;;;;;3.67;2.00;;;;;15.59;100.00;101427.88;5077358;28;45691;-72
2023/05/09 04:36:58;;;;;;;;;2.00;2.00;;;;;15.55;100.00;101426.31;5064711;27;45438;-72
2023/05/09 04:39:23;;;;;;;;;1.00;1.00;;;;;15.51;100.00;101420.31;5066683;28;45525;-72
2023/05/09 04:41:49;;;;;;;;;1.00;1.00;;;;;15.45;100.00;101422.44;5062221;28;52433;-72
2023/05/09 04:44:15;;;;;;;;;3.33;2.00;;;;;15.44;100.00;101421.59;5067856;28;46102;-72
2023/05/09 04:46:40;;;;;;;;;1.00;1.00;;;;;15.41;100.00;101419.09;5059473;28;45377;-72
2023/05/09 04:49:06;;;;;;;;;2.00;2.00;;;;;15.35;100.00;101423.91;5059896;28;45263;-72
2023/05/09 04:51:31;;;;;;;;;1.00;1.00;;;;;15.32;100.00;101422.28;5064451;28;45811;-71
2023/05/09 04:53:56;;;;;;;;;1.67;1.67;;;;;15.25;100.00;101409.41;5059235;28;51291;-72
2023/05/09 04:56:22;;;;;;;;;1.00;1.00;;;;;15.23;100.00;101428.13;5059169;28;49115;-72
2023/05/09 04:58:47;;;;;;;;;2.00;1.00;;;;;15.15;100.00;101408.22;5067429;28;45395;-72
2023/05/09 05:01:13;;;;;;;;;2.00;1.00;;;;;15.20;100.00;101415.00;5064437;28;45419;-72
2023/05/09 05:03:38;;;;;;;;;1.67;1.00;;;;;15.12;100.00;101404.75;5069398;28;46099;-72
2023/05/09 05:06:03;;;;;;;;;2.00;1.00;;;;;15.13;100.00;101411.81;5066889;28;45395;-72
2023/05/09 05:08:29;;;;;;;;;0.00;0.00;;;;;15.11;100.00;101405.72;5067510;28;45279;-71
2023/05/09 05:10:54;;;;;;;;;0.33;0.00;;;;;15.08;100.00;101399.69;5062833;28;45192;-71
2023/05/09 05:13:20;;;;;;;;;1.00;1.00;;;;;15.05;100.00;101397.22;5063600;28;46150;-72
2023/05/09 05:15:45;;;;;;;;;4.33;2.00;;;;;14.98;100.00;101396.69;5062046;28;45328;-71
2023/05/09 05:18:11;;;;;;;;;1.00;1.00;;;;;14.88;100.00;101378.66;5058447;28;45443;-71
2023/05/09 05:20:39;;;;;;;;;1.00;1.00;;;;;14.98;100.00;101395.84;5069554;28;45362;-72
2023/05/09 05:23:04;;;;;;;;;1.00;1.00;;;;;14.93;100.00;101388.09;5072081;28;46262;-72
2023/05/09 05:25:30;;;;;;;;;1.33;1.00;;;;;14.91;100.00;101378.47;5070474;28;45537;-71
2023/05/09 05:27:55;;;;;;;;;1.00;1.00;;;;;14.93;100.00;101388.09;5076673;28;45471;-72
2023/05/09 05:30:20;;;;;;;;;1.67;1.67;;;;;14.92;100.00;101388.19;5060025;28;52765;-72
2023/05/09 05:32:46;;;;;;;;;1.00;1.00;;;;;14.85;100.00;101385.00;5069520;28;51881;-72
2023/05/09 05:35:11;;;;;;;;;1.00;1.00;;;;;14.87;100.00;101387.56;5063202;28;45342;-71
2023/05/09 05:37:40;;;;;;;;;2.00;2.00;;;;;14.88;100.00;101382.16;5066209;28;45538;-71
2023/05/09 05:40:06;;;;;;;;;1.67;1.67;;;;;14.87;100.00;101382.25;5067768;28;45326;-71
2023/05/09 05:42:32;;;;;;;;;2.00;2.00;;;;;14.84;100.00;101377.09;5069018;28;46161;-71
2023/05/09 05:45:04;;;;;;;;;3.00;2.67;;;;;14.83;100.00;101380.69;5062320;28;45697;-72
2023/05/09 05:47:33;;;;;;;;;1.67;1.67;;;;;14.76;100.00;101368.66;5066339;28;45352;-72
2023/05/09 05:49:59;;;;;;;;;2.67;2.00;;;;;14.77;100.00;101371.25;5065786;28;45352;-72
2023/05/09 05:52:27;;;;;;;;;3.33;1.67;;;;;14.76;100.00;101369.50;5061982;28;46093;-72
2023/05/09 05:54:53;;;;;;;;;2.67;2.00;;;;;14.77;100.00;101365.06;5065339;28;45585;-72
2023/05/09 05:57:19;;;;;;;;;3.00;3.00;;;;;14.78;100.00;101372.09;5067496;27;45437;-72
2023/05/09 05:59:47;;;;;;;;;1.67;1.67;;;;;14.71;100.00;101352.94;5062076;28;45492;-71
2023/05/09 06:02:14;;;;;;;;;3.00;3.00;;;;;14.80;100.00;101356.88;5061043;28;45515;-70
2023/05/09 06:04:40;;;;;;;;;4.00;2.67;;;;;14.78;100.00;101358.78;5066729;28;45404;-70
2023/05/09 06:07:05;;;;;;;;;6.00;4.33;;;;;14.77;100.00;101354.41;5059809;28;46198;-70
2023/05/09 06:09:31;;;;;;;;;3.00;3.00;;;;;14.77;100.00;101349.94;5058222;28;45367;-71
2023/05/09 06:11:56;;;;;;;;;5.67;3.33;;;;;14.81;100.00;101355.97;5057615;28;57355;-71
2023/05/09 06:14:21;;;;;;;;;2.67;2.67;;;;;14.78;100.00;101341.03;5063702;28;45323;-70
2023/05/09 06:16:46;;;;;;;;;4.00;4.00;;;;;14.84;100.00;101353.97;5075249;27;45500;-68
2023/05/09 06:19:12;;;;;;;;;4.00;3.00;;;;;14.86;100.00;101357.41;5067354;27;45320;-68
2023/05/09 06:21:37;;;;;;;;;2.00;2.00;;;;;14.82;100.00;101347.88;5067330;28;45311;-69
2023/05/09 06:24:03;;;;;;;;;4.00;3.00;;;;;14.84;100.00;101345.13;5069099;27;46568;-68
2023/05/09 06:26:28;;;;;;;;;4.00;3.67;;;;;14.83;100.00;101335.41;5063521;28;45448;-71
2023/05/09 06:28:54;;;;;;;;;3.67;3.00;;;;;14.87;100.00;101345.81;5059169;28;45320;-71
2023/05/09 06:31:20;;;;;;;;;3.67;2.67;;;;;14.84;100.00;101327.34;5065381;28;45419;-69
2023/05/09 06:33:45;;;;;;;;;2.00;2.00;;;;;14.86;100.00;101330.78;5061003;28;45432;-72
2023/05/09 06:36:10;;;;;;;;;3.00;3.00;;;;;14.75;100.00;101303.91;5060243;28;45495;-72
2023/05/09 06:38:36;;;;;;;;;2.00;2.00;;;;;14.86;100.00;101312.13;5075613;28;45305;-69
2023/05/09 06:41:01;;;;;;;;;1.00;1.00;;;;;14.82;100.00;101313.25;5078176;28;45283;-67
2023/05/09 06:43:26;;;;;;;;;5.00;4.00;;;;;14.88;100.00;101312.06;5068414;27;50651;-68
2023/05/09 06:45:52;;;;;;;;;3.00;2.00;;;;;14.87;100.00;101302.34;5061816;27;45620;-69
2023/05/09 06:48:17;;;;;;;;;1.67;1.33;;;;;14.81;100.00;101308.03;5065222;28;45542;-69
2023/05/09 06:50:42;;;;;;;;;2.00;2.00;;;;;14.85;100.00;101305.13;5075874;27;49879;-70
2023/05/09 06:53:08;;;;;;;;;2.33;1.00;;;;;14.82;100.00;101304.44;5073092;28;51722;-69
2023/05/09 06:55:33;;;;;;;;;2.00;1.00;;;;;14.78;100.00;101290.44;5064211;28;45411;-70
2023/05/09 06:57:59;;;;;;;;;1.67;1.67;;;;;14.88;100.00;101302.28;5070588;28;45273;-71
2023/05/09 07:00:24;;;;;;;;;2.00;2.00;;;;;14.85;100.00;101296.25;5076334;27;46783;-67
2023/05/09 07:02:49;;;;;;;;;3.33;2.00;;;;;14.79;100.00;101283.28;5067774;27;45358;-69
2023/05/09 07:05:15;;;;;;;;;3.33;2.00;;;;;14.73;100.00;101270.31;5071735;28;45444;-69
2023/05/09 07:07:40;;;;;;;;;0.67;0.67;;;;;14.85;100.00;101282.94;5071110;28;45356;-70
2023/05/09 07:10:06;;;;;;;;;1.00;1.00;;;;;14.85;100.00;101283.81;5081041;27;45305;-69
2023/05/09 07:12:32;;;;;;;;;1.00;1.00;;;;;14.81;100.00;101276.94;5072339;27;45276;-68
2023/05/09 07:14:57;;;;;;;;;1.00;1.00;;;;;14.78;100.00;101278.91;5066563;28;45391;-68
2023/05/09 07:17:23;;;;;;;;;0.33;0.33;;;;;14.76;100.00;101272.78;5060535;28;45349;-68
2023/05/09 07:19:49;;;;;;;;;2.00;1.00;;;;;14.75;100.00;101274.63;5067863;28;46359;-68
2023/05/09 07:22:15;;;;;;;;;3.00;1.33;;;;;14.75;100.00;101269.31;5070965;27;45509;-68
2023/05/09 07:24:40;;;;;;;;;1.00;1.00;;;;;14.72;100.00;101266.81;5060714;28;45473;-68
2023/05/09 07:27:05;;;;;;;;;1.00;1.00;;;;;14.72;100.00;101269.47;5061474;28;45208;-69
2023/05/09 07:29:31;;;;;;;;;1.67;0.00;;;;;14.67;100.00;101263.53;5072105;28;46879;-69
2023/05/09 07:31:56;;;;;;;;;1.33;1.00;;;;;14.62;100.00;101252.31;5066729;28;45484;-69
2023/05/09 07:34:22;;;;;;;;;1.00;1.00;;;;;14.66;100.00;101260.97;5063800;28;45371;-69
2023/05/09 07:36:48;;;;;;;;;1.00;1.00;;;;;14.61;100.00;101255.91;5065503;27;45377;-70
2023/05/09 07:39:13;;;;;;;;;1.00;1.00;;;;;14.58;100.00;101250.75;5063203;28;45401;-69
2023/05/09 07:41:38;;;;;;;;;2.00;1.00;;;;;14.61;100.00;101245.25;5060872;28;51527;-69
2023/05/09 07:44:04;;;;;;;;;1.00;1.00;;;;;14.64;100.00;101239.75;5072561;28;53542;-70
2023/05/09 07:46:29;;;;;;;;;1.00;1.00;;;;;14.66;100.00;101240.50;5070373;27;45418;-69
2023/05/09 07:48:54;;;;;;;;;2.00;2.00;;;;;14.68;100.00;101237.78;5072899;28;55827;-69
2023/05/09 07:51:20;;;;;;;;;1.00;1.00;;;;;14.72;100.00;101241.97;5059913;28;45359;-70
2023/05/09 07:53:45;;;;;;;;;2.33;1.00;;;;;14.73;100.00;101235.69;5076006;28;45374;-69
2023/05/09 07:56:12;;;;;;;;;3.00;2.00;;;;;14.76;100.00;101235.50;5070463;28;45621;-69
2023/05/09 07:58:37;;;;;;;;;1.67;1.67;;;;;14.79;100.00;101233.53;5064987;27;45356;-69
2023/05/09 08:01:03;;;;;;;;;2.00;2.00;;;;;14.78;100.00;101231.84;5059898;28;45350;-69
2023/05/09 08:03:28;;;;;;;;;1.67;1.67;;;;;14.79;100.00;101232.72;5060184;28;45411;-70
2023/05/09 08:05:56;;;;;;;;;1.67;1.00;;;;;14.81;100.00;101229.00;5059592;28;45375;-69
2023/05/09 08:08:22;;;;;;;;;2.00;2.00;;;;;14.81;100.00;101236.13;5071992;28;46124;-70
2023/05/09 08:10:47;;;;;;;;;1.00;1.00;;;;;14.84;100.00;101234.16;5074598;28;45318;-70
2023/05/09 08:13:13;;;;;;;;;1.67;1.00;;;;;14.87;100.00;101228.63;5075470;28;45556;-69
2023/05/09 08:15:38;;;;;;;;;1.00;1.00;;;;;14.89;100.00;101229.41;5066297;27;45227;-69
2023/05/09 08:18:03;;;;;;;;;2.00;2.00;;;;;14.82;100.00;101214.72;5059682;28;46292;-69
2023/05/09 08:20:30;;;;;;;;;2.00;1.00;;;;;14.81;100.00;101209.50;5075154;28;45365;-70
2023/05/09 08:22:56;;;;;;;;;3.00;2.00;;;;;14.76;100.00;101212.41;5074394;27;45316;-69
2023/05/09 08:25:21;;;;;;;;;2.33;1.33;;;;;14.81;100.00;101209.50;5066222;28;45384;-69
2023/05/09 08:27:46;;;;;;;;;3.00;1.33;;;;;14.89;100.00;101212.56;5080043;27;45369;-69
2023/05/09 08:30:12;;;;;;;;;2.00;1.00;;;;;14.90;100.00;101203.63;5065951;27;45358;-70
2023/05/09 08:32:37;;;;;;;;;1.33;1.00;;;;;14.87;100.00;101201.16;5071154;27;45454;-69
2023/05/09 08:35:03;;;;;;;;;3.33;0.00;;;;;14.84;100.00;101196.00;5059617;28;58840;-70
2023/05/09 08:37:28;;;;;;;;;4.67;2.00;;;;;14.81;100.00;101191.72;5066301;27;45490;-69
2023/05/09 08:39:54;;;;;;;;;3.00;1.67;;;;;14.82;100.00;101193.41;5062999;28;45395;-69
2023/05/09 08:42:21;;;;;;;;;1.00;0.33;;;;;14.87;100.00;101190.50;5080182;27;45334;-69
2023/05/09 08:44:47;;;;;;;;;2.67;1.00;;;;;14.90;100.00;101191.16;5067836;27;45384;-69
2023/05/09 08:47:14;;;;;;;;;2.00;2.00;;;;;14.99;100.00;101187.97;5079788;27;45417;-69
2023/05/09 08:49:40;;;;;;;;;2.33;1.33;;;;;14.97;100.00;101179.22;5070503;27;45416;-68
2023/05/09 08:52:05;;;;;;;;;2.00;2.00;;;;;15.06;100.00;101180.47;5071719;27;45399;-69
2023/05/09 08:54:31;;;;;;;;;3.00;1.00;;;;;15.07;100.00;101184.84;5068057;27;45432;-69
2023/05/09 08:56:57;;;;;;;;;3.00;2.00;;;;;15.05;100.00;101182.25;5059140;28;46189;-69
2023/05/09 08:59:23;;;;;;;;;4.00;1.67;;;;;15.09;100.00;101189.13;5074501;28;45363;-69
2023/05/09 09:01:49;;;;;;;;;3.00;1.00;;;;;15.04;100.00;101175.25;5069416;28;45382;-69
2023/05/09 09:04:15;;;;;;;;;1.00;1.00;;;;;15.06;100.00;101173.31;5072535;27;46669;-69
2023/05/09 09:06:40;;;;;;;;;2.00;2.00;;;;;15.09;100.00;101167.81;5060650;28;48276;-70
2023/05/09 09:09:07;;;;;;;;;1.00;1.00;;;;;15.09;100.00;101167.81;5078959;27;45319;-69
2023/05/09 09:11:34;;;;;;;;;1.00;1.00;;;;;15.02;100.00;101165.59;5079115;27;45302;-69
2023/05/09 09:14:04;;;;;;;;;1.00;1.00;;;;;14.98;100.00;101162.28;5071103;27;45382;-69
2023/05/09 09:16:34;;;;;;;;;5.00;1.67;;;;;15.00;100.00;101157.72;5073862;28;45536;-70
2023/05/09 09:18:59;;;;;;;;;1.00;1.00;;;;;14.95;100.00;101162.44;5066192;28;45316;-69
2023/05/09 09:21:25;;;;;;;;;1.00;1.00;;;;;14.98;100.00;101161.44;5078622;27;45656;-69
2023/05/09 09:23:53;;;;;;;;;2.00;2.00;;;;;15.00;100.00;101159.53;5071371;28;45569;-70
2023/05/09 09:26:18;;;;;;;;;1.00;1.00;;;;;14.97;100.00;101155.25;5058340;28;45395;-70
2023/05/09 09:28:43;;;;;;;;;1.67;0.67;;;;;14.89;100.00;101149.50;5066349;28;45350;-69
2023/05/09 09:31:23;;;;;;;;;1.33;1.00;;;;;15.00;100.00;101164.84;5072822;27;45296;-69
2023/05/09 09:33:50;;;;;;;;;2.00;2.00;;;;;15.04;100.00;101164.59;5068389;28;45268;-69
2023/05/09 09:36:15;;;;;;;;;1.00;1.00;;;;;15.06;100.00;101167.13;5066633;27;46076;-69
2023/05/09 09:38:44;;;;;;;;;1.67;1.67;;;;;15.07;100.00;101161.72;5078841;28;45290;-69
2023/05/09 09:41:11;;;;;;;;;3.67;1.67;;;;;15.04;100.00;101159.25;5060796;27;45502;-70
2023/05/09 09:43:37;;;;;;;;;2.00;2.00;;;;;15.08;100.00;101162.59;5060524;28;45356;-69
2023/05/09 09:46:03;;;;;;;;;1.00;1.00;;;;;15.13;100.00;101161.34;5061504;28;45534;-69
2023/05/09 09:48:33;;;;;;;;;2.00;2.00;;;;;15.06;100.00;101160.00;5058558;28;45298;-69
2023/05/09 09:51:11;;;;;;;;;1.67;1.67;;;;;14.98;100.00;101140.13;5062877;28;45364;-69
2023/05/09 09:53:43;;;;;;;;;1.33;1.33;;;;;15.07;100.00;101156.41;5065688;27;45217;-69
2023/05/09 09:56:09;;;;;;;;;0.00;0.00;;;;;15.06;100.00;101145.81;5064801;27;45350;-69
2023/05/09 09:58:35;;;;;;;;;0.33;0.33;;;;;15.13;100.00;101150.69;5077187;28;45330;-69
2023/05/09 10:01:09;;;;;;;;;1.00;1.00;;;;;15.14;100.00;101156.91;5067428;27;45482;-69
2023/05/09 10:03:42;;;;;;;;;2.00;1.00;;;;;15.09;100.00;101154.50;5067442;27;45421;-69
2023/05/09 10:06:15;;;;;;;;;2.00;2.00;;;;;15.11;100.00;101147.28;5061455;27;45466;-69
2023/05/09 10:08:41;;;;;;;;;3.00;3.00;;;;;15.10;100.00;101137.56;5065263;27;45511;-69
2023/05/09 10:11:09;;;;;;;;;1.67;1.67;;;;;15.18;100.00;101136.25;5067967;27;45443;-69
2023/05/09 10:13:35;;;;;;;;;3.00;3.00;;;;;15.17;100.00;101140.72;5059033;27;45485;-69
2023/05/09 10:16:02;;;;;;;;;1.33;1.00;;;;;15.13;100.00;101123.19;5070208;27;45561;-69
2023/05/09 10:18:29;;;;;;;;;3.00;3.00;;;;;15.20;100.00;101131.69;5069175;28;45477;-69
2023/05/09 10:20:56;;;;;;;;;1.00;1.00;;;;;15.24;100.00;101128.75;5063367;28;45485;-69
2023/05/09 10:23:23;;;;;;;;;0.33;0.33;;;;;15.27;100.00;101125.88;5061491;28;45298;-69
2023/05/09 10:26:16;;;;;;;;;1.00;1.00;;;;;15.25;100.00;101118.94;5061416;28;46337;-69
2023/05/09 10:28:45;;;;;;;;;1.00;1.00;;;;;15.28;100.00;101124.09;5056159;28;45313;-69
2023/05/09 10:31:24;;;;;;;;;1.00;1.00;;;;;15.25;100.00;101116.28;5068674;28;45476;-69
2023/05/09 10:33:50;;;;;;;;;1.00;1.00;;;;;15.29;100.00;101112.44;5078831;27;45772;-69
2023/05/09 10:36:19;;;;;;;;;2.00;2.00;;;;;15.31;100.00;101110.56;5068912;28;45579;-69
2023/05/09 10:38:47;;;;;;;;;1.00;1.00;;;;;15.38;100.00;101111.91;5066552;28;45253;-69
2023/05/09 10:41:13;;;;;;;;;1.00;1.00;;;;;15.41;100.00;101104.53;5076282;27;45295;-70
2023/05/09 10:43:39;;;;;;;;;2.00;1.00;;;;;15.48;100.00;101102.38;5072833;28;45528;-69
2023/05/09 10:46:05;;;;;;;;;0.67;0.67;;;;;15.52;100.00;101098.59;5072772;27;45361;-70
2023/05/09 10:48:32;;;;;;;;;1.00;1.00;;;;;15.56;100.00;101100.13;5074706;28;45377;-68
2023/05/09 10:51:00;;;;;;;;;0.00;0.00;;;;;15.56;100.00;101097.44;5069585;28;45518;-69
2023/05/09 10:53:39;;;;;;;;;0.00;0.00;;;;;15.64;100.00;101100.47;5069555;28;45386;-69
2023/05/09 10:56:05;;;;;;;;;0.00;0.00;;;;;15.67;100.00;101096.78;5069327;28;45487;-69
2023/05/09 10:58:32;;;;;;;;;0.33;0.33;;;;;15.70;100.00;101099.25;5075518;28;45356;-69
2023/05/09 11:01:03;;;;;;;;;0.00;0.00;;;;;15.72;100.00;101094.66;5064591;28;45637;-68
2023/05/09 11:03:52;;;;;;;;;0.33;0.33;;;;;15.69;100.00;101095.72;5060153;28;45482;-69
2023/05/09 11:06:39;;;;;;;;;1.00;1.00;;;;;15.70;100.00;101085.91;5072438;28;45675;-69
2023/05/09 11:09:31;;;;;;;;;0.33;0.33;;;;;15.70;100.00;101092.09;5060361;28;45379;-69
2023/05/09 11:12:06;;;;;;;;;2.00;1.00;;;;;15.71;100.00;101087.59;5060907;28;45432;-69
2023/05/09 11:14:42;;;;;;;;;0.67;0.67;;;;;15.73;100.00;101077.72;5068812;28;45308;-69
2023/05/09 11:17:12;;;;;;;;;0.33;0.33;;;;;15.73;100.00;101070.56;5070103;28;46282;-69
2023/05/09 11:20:00;;;;;;;;;0.00;0.00;;;;;15.77;100.00;101074.72;5070100;28;45205;-69